Time;durP1;ratioP1;P1;durP2;ratioP2;P2;SDS_P1;SDS_P2;PMS_P1;PMS_P2;Temp;Humidity;BMP_temperature;BMP_pressure;BME280_temperature;BME280_humidity;BME280_pressure;Samples;Min_cycle;Max_cycle;Signal;HPM_P1;HPM_P2
2022/11/22 00:00:37;;;;;;;9.40;5.28;;;-5.20;99.90;;;;;;5063722;28;20140;-79
2022/11/22 00:03:04;;;;;;;8.95;5.93;;;-5.20;99.90;;;;;;5038453;28;20064;-80
2022/11/22 00:05:31;;;;;;;10.35;6.13;;;-5.20;99.90;;;;;;5051489;28;20045;-81
2022/11/22 00:07:59;;;;;;;9.35;6.45;;;-5.30;99.90;;;;;;5074030;28;20575;-80
2022/11/22 00:10:26;;;;;;;9.88;4.35;;;-5.30;99.90;;;;;;5050040;28;20052;-80
2022/11/22 00:12:54;;;;;;;9.00;5.20;;;-5.30;99.90;;;;;;5049726;28;20135;-80
2022/11/22 00:15:23;;;;;;;10.55;6.10;;;-5.40;99.90;;;;;;5056842;28;20505;-80
2022/11/22 00:17:51;;;;;;;9.88;5.65;;;-5.40;99.90;;;;;;5050153;28;20048;-79
2022/11/22 00:20:19;;;;;;;12.70;5.95;;;-5.50;99.90;;;;;;5052449;28;20135;-79
2022/11/22 00:22:47;;;;;;;11.35;5.97;;;-5.40;99.90;;;;;;5074349;28;20060;-79
2022/11/22 00:25:15;;;;;;;10.63;6.07;;;-5.30;99.90;;;;;;5047566;28;20053;-79
2022/11/22 00:27:42;;;;;;;9.98;6.30;;;-5.20;99.90;;;;;;5030589;28;20053;-78
2022/11/22 00:30:11;;;;;;;12.48;6.38;;;-5.20;99.90;;;;;;5039045;28;20514;-80
2022/11/22 00:32:41;;;;;;;11.23;5.82;;;-5.20;99.90;;;;;;5047069;28;20513;-79
2022/11/22 00:35:09;;;;;;;10.82;5.68;;;-5.30;99.90;;;;;;5048478;28;20148;-79
2022/11/22 00:37:37;;;;;;;12.13;6.43;;;-5.30;99.90;;;;;;5046345;28;20049;-78
2022/11/22 00:40:06;;;;;;;11.75;6.05;;;-5.30;99.90;;;;;;5050326;28;20171;-79
2022/11/22 00:42:33;;;;;;;11.55;6.30;;;-5.30;99.90;;;;;;5044415;28;20041;-79
2022/11/22 00:45:00;;;;;;;11.05;6.70;;;-5.30;99.90;;;;;;5013014;28;20056;-80
2022/11/22 00:47:28;;;;;;;11.07;6.78;;;-5.30;99.90;;;;;;5046805;28;20052;-79
2022/11/22 00:49:56;;;;;;;12.70;6.82;;;-5.30;99.90;;;;;;5050290;28;20052;-80
2022/11/22 00:52:24;;;;;;;11.15;5.75;;;-5.30;99.90;;;;;;5050308;28;20045;-78
2022/11/22 00:54:51;;;;;;;13.02;7.20;;;-5.30;99.90;;;;;;5045832;28;20057;-78
2022/11/22 00:57:18;;;;;;;9.68;5.70;;;-5.30;99.90;;;;;;5032101;28;20064;-78
2022/11/22 00:59:46;;;;;;;10.02;5.82;;;-5.30;99.90;;;;;;5035712;28;20591;-79
2022/11/22 01:02:13;;;;;;;10.90;6.20;;;-5.30;99.90;;;;;;5047231;28;20060;-78
2022/11/22 01:04:41;;;;;;;9.43;5.50;;;-5.30;99.90;;;;;;5034060;28;20053;-78
2022/11/22 01:07:10;;;;;;;9.57;5.32;;;-5.40;99.90;;;;;;5051987;28;20532;-79
2022/11/22 01:09:37;;;;;;;9.48;6.32;;;-5.40;99.90;;;;;;5039364;28;20073;-79
2022/11/22 01:12:05;;;;;;;12.52;5.88;;;-5.40;99.90;;;;;;5046703;28;20084;-78
2022/11/22 01:14:33;;;;;;;12.07;5.82;;;-5.40;99.90;;;;;;5035186;28;20371;-79
2022/11/22 01:17:00;;;;;;;9.60;5.75;;;-5.40;99.90;;;;;;5042376;28;20044;-78
2022/11/22 01:19:28;;;;;;;9.88;5.60;;;-5.40;99.90;;;;;;5048401;28;20086;-78
2022/11/22 01:21:55;;;;;;;9.40;5.47;;;-5.40;99.90;;;;;;5050237;28;20082;-79
2022/11/22 01:24:24;;;;;;;9.82;5.53;;;-5.40;99.90;;;;;;5051317;28;20087;-78
2022/11/22 01:26:51;;;;;;;7.95;4.65;;;-5.40;99.90;;;;;;5045382;28;20060;-78
2022/11/22 01:29:19;;;;;;;11.32;5.88;;;-5.50;99.90;;;;;;5045424;28;20057;-77
2022/11/22 01:31:46;;;;;;;11.55;6.30;;;-5.60;99.90;;;;;;5049489;28;20502;-79
2022/11/22 01:34:13;;;;;;;12.15;5.45;;;-5.60;99.90;;;;;;5042597;28;20045;-79
2022/11/22 01:36:41;;;;;;;7.40;5.18;;;-5.60;99.90;;;;;;5036882;28;20045;-79
2022/11/22 01:39:08;;;;;;;19.98;6.45;;;-5.50;99.90;;;;;;5021072;28;20049;-79
2022/11/22 01:41:37;;;;;;;7.75;5.40;;;-5.50;99.90;;;;;;5071618;28;20064;-79
2022/11/22 01:44:24;;;;;;;9.30;5.30;;;-5.40;99.90;;;;;;5035929;28;20046;-80
2022/11/22 01:46:54;;;;;;;8.40;4.97;;;-5.40;99.90;;;;;;5037664;28;20049;-79
2022/11/22 01:49:28;;;;;;;10.02;5.15;;;-5.30;99.90;;;;;;5029099;28;20056;-80
2022/11/22 01:52:01;;;;;;;7.78;5.20;;;-5.30;99.90;;;;;;5045259;28;20136;-81
2022/11/22 01:54:33;;;;;;;8.50;4.65;;;-5.40;99.90;;;;;;5036453;28;20140;-80
2022/11/22 01:57:06;;;;;;;10.85;5.97;;;-5.40;99.90;;;;;;5033343;28;20539;-80
2022/11/22 01:59:37;;;;;;;8.82;5.22;;;-5.40;99.90;;;;;;5034552;28;20445;-79
2022/11/22 02:02:06;;;;;;;8.75;5.20;;;-5.40;99.90;;;;;;5030409;28;20053;-80
2022/11/22 02:04:35;;;;;;;8.85;5.07;;;-5.40;99.90;;;;;;5045359;28;20052;-80
2022/11/22 02:07:10;;;;;;;10.63;5.60;;;-5.40;99.90;;;;;;5049921;28;20045;-80
2022/11/22 02:09:39;;;;;;;7.72;4.32;;;-5.30;99.90;;;;;;5032135;28;20872;-79
2022/11/22 02:12:10;;;;;;;11.10;5.30;;;-5.30;99.90;;;;;;5017029;28;20088;-79
2022/11/22 02:14:40;;;;;;;11.77;5.88;;;-5.30;99.90;;;;;;5042496;28;20052;-79
2022/11/22 02:17:07;;;;;;;8.52;5.43;;;-5.30;99.90;;;;;;5039182;28;20049;-79
2022/11/22 02:19:42;;;;;;;11.25;6.57;;;-5.40;99.90;;;;;;5057905;28;20045;-78
2022/11/22 02:22:27;;;;;;;10.65;5.68;;;-5.40;99.90;;;;;;5033446;28;20421;-78
2022/11/22 02:25:01;;;;;;;9.73;5.22;;;-5.50;99.90;;;;;;5047082;28;20470;-78
2022/11/22 02:27:32;;;;;;;11.77;6.00;;;-5.50;99.90;;;;;;5036849;28;20417;-80
2022/11/22 02:29:59;;;;;;;11.63;7.00;;;-5.50;99.90;;;;;;5050470;28;20052;-79
2022/11/22 02:32:27;;;;;;;11.48;6.63;;;-5.50;99.90;;;;;;5038945;28;20049;-79
2022/11/22 02:34:54;;;;;;;24.60;6.00;;;-5.50;99.90;;;;;;5040409;28;20064;-78
2022/11/22 02:37:27;;;;;;;12.85;6.93;;;-5.50;99.90;;;;;;5046618;28;20053;-79
2022/11/22 02:40:05;;;;;;;13.23;6.85;;;-5.50;99.90;;;;;;5033548;28;20052;-79
2022/11/22 02:42:35;;;;;;;14.23;6.32;;;-5.60;99.90;;;;;;5056193;28;20136;-78
2022/11/22 02:45:03;;;;;;;11.82;5.70;;;-5.60;99.90;;;;;;5043922;28;20163;-79
2022/11/22 02:47:31;;;;;;;10.73;5.90;;;-5.60;99.90;;;;;;5048143;28;20041;-78
2022/11/22 02:49:59;;;;;;;9.98;6.05;;;-5.60;99.90;;;;;;5055785;28;21075;-80
2022/11/22 02:52:26;;;;;;;9.57;5.50;;;-5.50;99.90;;;;;;5063542;28;20052;-80
2022/11/22 02:54:54;;;;;;;10.60;6.47;;;-5.50;99.90;;;;;;5043482;28;20649;-80
2022/11/22 02:57:21;;;;;;;10.27;6.60;;;-5.50;99.90;;;;;;5048922;28;20421;-79
2022/11/22 02:59:50;;;;;;;10.75;6.20;;;-5.50;99.90;;;;;;5054940;28;20513;-79
2022/11/22 03:02:17;;;;;;;10.98;6.78;;;-5.50;99.90;;;;;;5037896;28;20118;-79
2022/11/22 03:04:44;;;;;;;14.20;6.85;;;-5.50;99.90;;;;;;5054970;28;20049;-79
2022/11/22 03:07:12;;;;;;;11.20;6.90;;;-5.50;99.90;;;;;;5048616;28;20041;-79
2022/11/22 03:09:39;;;;;;;13.75;6.30;;;-5.50;99.90;;;;;;5041910;28;20128;-79
2022/11/22 03:12:07;;;;;;;11.27;6.28;;;-5.50;99.90;;;;;;5028380;28;20041;-79
2022/11/22 03:14:34;;;;;;;11.18;7.75;;;-5.40;99.90;;;;;;5032660;28;20140;-79
2022/11/22 03:17:03;;;;;;;18.02;8.18;;;-5.40;99.90;;;;;;5038604;28;20388;-79
2022/11/22 03:19:30;;;;;;;19.15;7.75;;;-5.40;99.90;;;;;;5047519;28;20110;-79
2022/11/22 03:21:58;;;;;;;14.40;7.57;;;-5.40;99.90;;;;;;5068846;28;20067;-81
2022/11/22 03:24:25;;;;;;;16.15;7.97;;;-5.40;99.90;;;;;;5035578;28;20053;-80
2022/11/22 03:26:53;;;;;;;18.45;8.35;;;-5.30;99.90;;;;;;5057546;28;20068;-81
2022/11/22 03:29:20;;;;;;;13.82;8.18;;;-5.30;99.90;;;;;;5068277;28;20451;-81
2022/11/22 03:31:47;;;;;;;19.60;9.98;;;-5.20;99.90;;;;;;5056385;28;20064;-81
2022/11/22 03:34:17;;;;;;;38.22;12.35;;;-5.20;99.90;;;;;;5047159;28;20139;-81
2022/11/22 03:36:44;;;;;;;16.35;8.77;;;-5.10;99.90;;;;;;5048950;28;20096;-80
2022/11/22 03:39:12;;;;;;;19.77;9.35;;;-5.10;99.90;;;;;;5051472;28;20139;-79
2022/11/22 03:41:39;;;;;;;13.15;8.02;;;-5.10;99.90;;;;;;5040582;28;20052;-80
2022/11/22 03:44:07;;;;;;;18.65;8.95;;;-5.00;99.90;;;;;;5042372;28;20068;-81
2022/11/22 03:46:34;;;;;;;16.13;9.15;;;-5.00;99.90;;;;;;5037970;28;20045;-81
2022/11/22 03:49:01;;;;;;;15.43;8.70;;;-5.00;99.90;;;;;;5052275;28;20128;-79
2022/11/22 03:51:30;;;;;;;16.10;8.82;;;-5.00;99.90;;;;;;5051107;28;20045;-79
2022/11/22 03:53:58;;;;;;;16.98;8.60;;;-4.90;99.90;;;;;;5033859;28;20087;-77
2022/11/22 03:56:25;;;;;;;13.48;8.25;;;-4.90;99.90;;;;;;5050851;28;20049;-78
2022/11/22 03:58:53;;;;;;;19.08;8.35;;;-4.80;99.90;;;;;;5044189;28;20080;-78
2022/11/22 04:01:20;;;;;;;15.18;9.07;;;-4.80;99.90;;;;;;5043269;28;20458;-78
2022/11/22 04:03:48;;;;;;;18.80;9.00;;;-4.80;99.90;;;;;;5035019;28;20136;-77
2022/11/22 04:06:15;;;;;;;15.05;8.15;;;-4.80;99.90;;;;;;5040546;28;20072;-78
2022/11/22 04:08:44;;;;;;;17.45;8.95;;;-4.80;99.90;;;;;;5039719;28;20048;-79
2022/11/22 04:11:12;;;;;;;19.38;8.18;;;-4.70;99.90;;;;;;5045749;28;20055;-78
2022/11/22 04:16:26;;;;;;;16.50;9.45;;;-4.80;99.90;;;;;;5043339;28;20060;-79
2022/11/22 04:18:54;;;;;;;17.70;8.27;;;-4.70;99.90;;;;;;5049062;28;20081;-75
2022/11/22 04:21:32;;;;;;;11.80;7.15;;;-4.70;99.90;;;;;;5047094;28;20114;-74
2022/11/22 04:26:49;;;;;;;15.20;7.55;;;-4.70;99.90;;;;;;5051440;28;20053;-76
2022/11/22 04:29:17;;;;;;;16.08;7.70;;;-4.80;99.90;;;;;;5031511;28;20049;-76
2022/11/22 04:34:30;;;;;;;14.25;7.88;;;-4.80;99.90;;;;;;5038947;28;20045;-76
2022/11/22 04:36:57;;;;;;;12.82;7.30;;;-4.80;99.90;;;;;;5049729;28;20037;-76
2022/11/22 04:39:29;;;;;;;13.38;7.70;;;-4.80;99.90;;;;;;5049231;28;20041;-77
2022/11/22 04:44:44;;;;;;;11.35;6.47;;;-4.80;99.90;;;;;;5047322;28;20156;-74
2022/11/22 04:47:57;;;;;;;13.05;6.22;;;-4.80;99.90;;;;;;5039613;28;20361;-74
2022/11/22 04:52:52;;;;;;;14.52;7.03;;;-4.80;99.90;;;;;;5036173;28;20072;-74
2022/11/22 04:52:56;;;;;;;12.20;5.93;;;-4.80;99.90;;;;;;5013744;28;20037;-76
2022/11/22 04:55:25;;;;;;;12.95;7.07;;;-4.70;99.90;;;;;;5030860;28;20079;-77
2022/11/22 04:57:52;;;;;;;15.15;7.07;;;-4.70;99.90;;;;;;5045572;28;20140;-77
2022/11/22 05:00:20;;;;;;;14.10;6.78;;;-4.70;99.90;;;;;;5045272;28;20053;-75
2022/11/22 05:02:47;;;;;;;13.63;7.07;;;-4.70;99.90;;;;;;5056513;28;20077;-74
2022/11/22 05:05:15;;;;;;;13.40;7.18;;;-4.70;99.90;;;;;;5051443;28;20049;-76
2022/11/22 05:07:42;;;;;;;13.38;7.25;;;-4.70;99.90;;;;;;5052033;28;20072;-74
2022/11/22 05:10:10;;;;;;;13.27;7.82;;;-4.70;99.90;;;;;;5040847;28;20037;-78
2022/11/22 05:12:41;;;;;;;17.42;7.18;;;-4.70;99.90;;;;;;5041349;28;20048;-79
2022/11/22 05:15:10;;;;;;;12.13;6.68;;;-4.60;99.90;;;;;;5042306;28;20050;-78
2022/11/22 05:17:38;;;;;;;15.18;6.85;;;-4.50;99.90;;;;;;5032944;28;20045;-78
2022/11/22 05:20:08;;;;;;;14.07;7.20;;;-4.50;99.90;;;;;;5045876;28;20053;-80
2022/11/22 05:25:21;;;;;;;13.93;7.38;;;-4.50;99.90;;;;;;5037846;28;20052;-80
2022/11/22 05:27:54;;;;;;;12.93;7.72;;;-4.50;99.90;;;;;;5030132;28;20057;-78
2022/11/22 05:30:21;;;;;;;13.88;7.28;;;-4.40;99.90;;;;;;5049332;28;20075;-78
2022/11/22 05:32:49;;;;;;;13.45;8.05;;;-4.50;99.90;;;;;;5040183;28;20081;-79
2022/11/22 05:35:16;;;;;;;14.45;7.47;;;-4.50;99.90;;;;;;5040955;28;20735;-78
2022/11/22 05:37:44;;;;;;;15.27;7.63;;;-4.40;99.90;;;;;;5041911;28;20128;-79
2022/11/22 05:40:13;;;;;;;12.52;7.10;;;-4.40;99.90;;;;;;5048745;28;20046;-80
2022/11/22 05:42:40;;;;;;;15.65;8.18;;;-4.30;99.90;;;;;;5044613;28;20383;-79
2022/11/22 05:45:11;;;;;;;14.43;7.25;;;-4.30;99.90;;;;;;5045865;28;20077;-80
2022/11/22 05:47:38;;;;;;;21.65;6.65;;;-4.30;99.90;;;;;;5061357;28;20095;-79
2022/11/22 05:50:07;;;;;;;12.38;6.22;;;-4.20;99.90;;;;;;5047829;28;20135;-80
2022/11/22 05:52:35;;;;;;;15.48;6.85;;;-4.20;99.90;;;;;;5050606;28;20069;-82
2022/11/22 05:55:07;;;;;;;12.48;6.78;;;-4.20;99.90;;;;;;5031959;28;20553;-78
2022/11/22 05:57:35;;;;;;;15.50;8.45;;;-4.20;99.90;;;;;;5044274;28;20049;-83
2022/11/22 06:00:04;;;;;;;14.90;5.50;;;-4.20;99.90;;;;;;5045732;28;20125;-81
2022/11/22 06:02:40;;;;;;;11.23;6.50;;;-4.20;99.90;;;;;;5046229;28;20071;-80
2022/11/22 06:05:09;;;;;;;16.42;6.30;;;-4.20;99.90;;;;;;5041597;28;20171;-82
2022/11/22 06:07:36;;;;;;;14.13;6.13;;;-4.20;99.90;;;;;;5049259;28;20048;-80
2022/11/22 06:10:04;;;;;;;14.68;6.47;;;-4.10;99.90;;;;;;5048598;28;20049;-79
2022/11/22 06:12:32;;;;;;;13.88;6.32;;;-4.10;99.90;;;;;;5049784;28;20456;-77
2022/11/22 06:14:59;;;;;;;12.07;6.05;;;-4.10;99.90;;;;;;5040774;28;20138;-79
2022/11/22 06:17:27;;;;;;;14.45;5.47;;;-4.10;99.90;;;;;;5047594;28;20049;-79
2022/11/22 06:19:56;;;;;;;11.75;6.50;;;-4.00;99.90;;;;;;5049008;28;20422;-81
2022/11/22 06:22:23;;;;;;;13.48;5.85;;;-4.00;99.90;;;;;;5064494;28;20049;-79
2022/11/22 06:24:51;;;;;;;9.23;4.97;;;-3.90;99.90;;;;;;5048266;28;20061;-81
2022/11/22 06:27:18;;;;;;;12.57;6.25;;;-3.90;99.90;;;;;;5045794;28;20040;-80
2022/11/22 06:29:45;;;;;;;12.23;5.97;;;-3.90;99.90;;;;;;5046981;28;20057;-75
2022/11/22 06:32:14;;;;;;;9.05;6.05;;;-3.90;99.90;;;;;;5058175;28;20254;-78
2022/11/22 06:34:41;;;;;;;11.60;5.95;;;-3.80;99.90;;;;;;5047912;28;20072;-78
2022/11/22 06:37:10;;;;;;;13.07;6.15;;;-3.80;99.90;;;;;;5047133;28;20052;-75
2022/11/22 06:39:37;;;;;;;10.65;5.28;;;-3.70;99.90;;;;;;5047900;28;20040;-74
2022/11/22 06:42:05;;;;;;;9.80;5.43;;;-3.70;99.90;;;;;;5044037;28;20472;-79
2022/11/22 06:44:33;;;;;;;12.18;5.97;;;-3.70;99.90;;;;;;5062259;28;20059;-75
2022/11/22 06:47:01;;;;;;;13.63;5.55;;;-3.70;99.90;;;;;;5036372;28;20056;-75
2022/11/22 06:49:28;;;;;;;10.20;5.25;;;-3.70;99.90;;;;;;5042214;28;20072;-76
2022/11/22 06:51:55;;;;;;;12.48;6.03;;;-3.60;99.90;;;;;;5046259;28;20049;-74
2022/11/22 06:54:24;;;;;;;12.50;5.78;;;-3.60;99.90;;;;;;5045558;28;20041;-75
2022/11/22 06:56:51;;;;;;;11.40;6.38;;;-3.60;99.90;;;;;;5041220;28;20063;-76
2022/11/22 06:59:19;;;;;;;12.75;6.07;;;-3.60;99.90;;;;;;5044720;28;20083;-78
2022/11/22 07:01:46;;;;;;;13.02;6.88;;;-3.60;99.90;;;;;;5044553;28;20051;-75
2022/11/22 07:04:14;;;;;;;12.98;6.80;;;-3.60;99.90;;;;;;5028429;28;20075;-77
2022/11/22 07:06:42;;;;;;;16.13;7.35;;;-3.60;99.90;;;;;;5036317;28;20059;-75
2022/11/22 07:09:11;;;;;;;14.25;6.15;;;-3.60;99.90;;;;;;5061174;28;20136;-76
2022/11/22 07:11:41;;;;;;;18.20;7.78;;;-3.60;99.90;;;;;;5040290;28;20045;-77
2022/11/22 07:14:09;;;;;;;16.15;6.90;;;-3.50;99.90;;;;;;5060318;28;20084;-75
2022/11/22 07:16:37;;;;;;;13.57;6.97;;;-3.50;99.90;;;;;;5058306;28;20084;-76
2022/11/22 07:19:05;;;;;;;20.40;7.30;;;-3.40;99.90;;;;;;5054366;28;20471;-76
2022/11/22 07:21:33;;;;;;;17.30;7.97;;;-3.40;99.90;;;;;;5039001;28;20045;-75
2022/11/22 07:24:01;;;;;;;19.92;9.43;;;-3.30;99.90;;;;;;5055421;28;20154;-75
2022/11/22 07:26:28;;;;;;;21.02;8.43;;;-3.30;99.90;;;;;;5068251;28;20056;-74
2022/11/22 07:28:57;;;;;;;20.70;7.93;;;-3.30;99.90;;;;;;5054720;28;20075;-76
2022/11/22 07:31:25;;;;;;;22.20;9.05;;;-3.20;99.90;;;;;;5060640;28;20448;-76
2022/11/22 07:33:52;;;;;;;22.42;8.93;;;-3.20;99.90;;;;;;5052088;28;20107;-78
2022/11/22 07:36:21;;;;;;;28.50;10.27;;;-3.20;99.90;;;;;;5055530;28;20047;-78
2022/11/22 07:38:50;;;;;;;26.73;10.00;;;-3.20;99.90;;;;;;5050261;28;20053;-75
2022/11/22 07:41:20;;;;;;;25.13;10.02;;;-3.30;99.90;;;;;;5069640;28;20044;-77
2022/11/22 07:43:48;;;;;;;23.02;8.40;;;-3.20;99.90;;;;;;5067631;28;20052;-75
2022/11/22 07:46:23;;;;;;;25.33;9.60;;;-3.20;99.90;;;;;;5061469;28;20071;-76
2022/11/22 07:48:51;;;;;;;20.48;9.20;;;-3.20;99.90;;;;;;5060196;28;20094;-77
2022/11/22 07:51:19;;;;;;;26.55;10.90;;;-3.20;99.90;;;;;;5069472;28;20048;-76
2022/11/22 07:53:46;;;;;;;33.75;10.27;;;-3.20;99.90;;;;;;5069136;28;20402;-77
2022/11/22 07:56:14;;;;;;;29.63;9.68;;;-3.20;99.90;;;;;;5054183;28;20055;-77
2022/11/22 07:58:41;;;;;;;23.73;10.15;;;-3.10;99.90;;;;;;5067364;28;20082;-77
2022/11/22 08:01:10;;;;;;;27.48;10.35;;;-3.10;99.90;;;;;;5070907;28;20428;-77
2022/11/22 08:03:40;;;;;;;28.48;9.77;;;-3.10;99.90;;;;;;5072064;28;20082;-76
2022/11/22 08:06:10;;;;;;;24.27;10.98;;;-3.10;99.90;;;;;;5060398;28;20543;-76
2022/11/22 08:08:38;;;;;;;29.02;11.32;;;-3.00;99.90;;;;;;5050334;28;20048;-77
2022/11/22 08:11:06;;;;;;;26.90;9.85;;;-3.00;99.90;;;;;;5070478;28;20049;-77
2022/11/22 08:13:35;;;;;;;32.05;11.55;;;-2.90;99.90;;;;;;5059690;28;20052;-76
2022/11/22 08:16:05;;;;;;;27.60;9.95;;;-2.90;99.90;;;;;;5052218;28;20045;-74
2022/11/22 08:18:33;;;;;;;25.42;9.40;;;-2.90;99.90;;;;;;5067464;28;20411;-75
2022/11/22 08:21:07;;;;;;;28.15;9.82;;;-2.90;99.90;;;;;;5070700;28;20144;-76
2022/11/22 08:23:35;;;;;;;30.83;10.88;;;-2.90;99.90;;;;;;5061833;28;20044;-76
2022/11/22 08:26:04;;;;;;;28.33;10.18;;;-2.80;99.90;;;;;;5044244;28;20614;-75
2022/11/22 08:28:32;;;;;;;28.63;10.57;;;-2.80;99.90;;;;;;5071644;28;20044;-76
2022/11/22 08:31:01;;;;;;;22.75;9.65;;;-2.70;99.90;;;;;;5072068;28;20044;-76
2022/11/22 08:33:29;;;;;;;25.20;9.65;;;-2.70;99.90;;;;;;5039013;28;20490;-78
2022/11/22 08:35:56;;;;;;;22.30;10.07;;;-2.70;99.90;;;;;;5059613;28;20090;-74
2022/11/22 08:38:25;;;;;;;21.02;8.65;;;-2.60;99.90;;;;;;5070830;28;20057;-76
2022/11/22 08:40:52;;;;;;;24.40;9.65;;;-2.60;99.90;;;;;;5066821;28;20049;-74
2022/11/22 08:43:20;;;;;;;23.25;9.55;;;-2.50;99.90;;;;;;5042982;28;20564;-74
2022/11/22 08:45:48;;;;;;;21.73;8.65;;;-2.50;99.90;;;;;;5069632;28;20139;-74
2022/11/22 08:48:15;;;;;;;21.75;9.25;;;-2.40;99.90;;;;;;5056564;28;20072;-75
2022/11/22 08:50:49;;;;;;;21.30;9.05;;;-2.40;99.90;;;;;;5054157;28;20131;-75
2022/11/22 08:53:17;;;;;;;23.95;9.52;;;-2.40;99.90;;;;;;5060456;28;20065;-76
2022/11/22 08:55:46;;;;;;;22.45;8.80;;;-2.40;99.90;;;;;;5070595;28;20452;-77
2022/11/22 08:58:13;;;;;;;22.70;8.57;;;-2.40;99.90;;;;;;5068272;28;20083;-77
2022/11/22 09:00:41;;;;;;;20.33;8.13;;;-2.30;99.90;;;;;;5047351;28;20111;-74
2022/11/22 09:03:08;;;;;;;16.90;7.90;;;-2.30;99.90;;;;;;5069456;28;20084;-75
2022/11/22 09:05:36;;;;;;;19.92;7.72;;;-2.30;99.90;;;;;;5070250;28;20098;-75
2022/11/22 09:08:04;;;;;;;16.95;7.75;;;-2.30;99.90;;;;;;5054171;28;20076;-74
2022/11/22 09:10:32;;;;;;;23.85;8.65;;;-2.20;99.90;;;;;;5045531;28;20394;-75
2022/11/22 09:13:00;;;;;;;19.92;7.75;;;-2.20;99.90;;;;;;5051171;28;20049;-74
2022/11/22 09:15:28;;;;;;;22.15;8.00;;;-2.20;99.90;;;;;;5060185;28;20517;-75
2022/11/22 09:18:01;;;;;;;21.58;8.52;;;-2.20;99.90;;;;;;5065569;28;20053;-74
2022/11/22 09:20:29;;;;;;;21.35;8.73;;;-2.20;99.90;;;;;;5050417;28;20402;-73
2022/11/22 09:22:57;;;;;;;19.42;7.45;;;-2.20;99.90;;;;;;5068124;28;20531;-72
2022/11/22 09:25:24;;;;;;;18.35;7.00;;;-2.20;99.90;;;;;;5069463;28;20057;-75
2022/11/22 09:27:52;;;;;;;22.63;8.18;;;-2.10;99.90;;;;;;5050524;28;20592;-75
2022/11/22 09:30:21;;;;;;;21.10;7.97;;;-2.10;99.90;;;;;;5039185;28;20078;-74
2022/11/22 09:32:50;;;;;;;15.15;7.57;;;-2.10;99.90;;;;;;5070603;28;20057;-74
2022/11/22 09:35:19;;;;;;;18.05;7.53;;;-2.10;99.90;;;;;;5061688;28;20054;-75
2022/11/22 09:37:46;;;;;;;17.85;7.18;;;-2.00;99.90;;;;;;5043629;28;20041;-74
2022/11/22 09:40:14;;;;;;;20.65;9.15;;;-2.10;99.90;;;;;;5055843;28;20056;-74
2022/11/22 09:43:00;;;;;;;22.08;7.80;;;-2.00;99.90;;;;;;5069160;28;20059;-74
2022/11/22 09:46:04;;;;;;;18.77;7.57;;;-2.00;99.90;;;;;;5054785;28;20517;-76
2022/11/22 09:49:08;;;;;;;18.70;8.20;;;-1.90;99.90;;;;;;5049454;28;20098;-76
2022/11/22 09:51:41;;;;;;;45.33;7.75;;;-1.90;99.90;;;;;;5065308;28;20107;-75
2022/11/22 09:54:13;;;;;;;19.50;6.97;;;-1.90;99.90;;;;;;5048689;28;20111;-75
2022/11/22 09:56:41;;;;;;;17.00;6.82;;;-1.90;99.90;;;;;;5043622;28;20081;-76
2022/11/22 09:59:14;;;;;;;22.90;7.90;;;-1.90;99.90;;;;;;5050118;28;20051;-74
2022/11/22 10:01:49;;;;;;;21.67;8.55;;;-1.90;99.90;;;;;;5054948;28;20052;-76
2022/11/22 10:04:21;;;;;;;24.38;8.70;;;-1.90;99.90;;;;;;5047517;28;20040;-78
2022/11/22 10:06:53;;;;;;;;;;;-1.90;99.90;;;;;;5052557;28;20063;-77
2022/11/22 10:09:34;;;;;;;28.60;7.63;;;-1.80;99.90;;;;;;5062501;28;19963;-78
2022/11/22 10:12:15;;;;;;;19.88;7.93;;;-1.80;99.90;;;;;;5056922;28;20122;-78
2022/11/22 10:14:52;;;;;;;18.50;7.32;;;-1.80;99.90;;;;;;5051531;28;20049;-79
2022/11/22 10:17:38;;;;;;;21.08;7.25;;;-1.80;99.90;;;;;;5040992;28;20444;-78
2022/11/22 10:20:14;;;;;;;19.77;7.15;;;-1.70;99.90;;;;;;5065179;28;20055;-79
2022/11/22 10:22:41;;;;;;;19.23;6.90;;;-1.70;99.90;;;;;;5055786;28;20052;-79
2022/11/22 10:25:17;;;;;;;17.63;7.45;;;-1.70;99.90;;;;;;5052056;28;20490;-79
2022/11/22 10:27:48;;;;;;;16.20;7.78;;;-1.70;99.90;;;;;;5052776;28;20118;-79
2022/11/22 10:30:19;;;;;;;13.60;6.97;;;-1.60;99.90;;;;;;5049909;28;20168;-79
2022/11/22 10:33:10;;;;;;;25.42;6.93;;;-1.50;99.90;;;;;;5066866;28;20261;-79
2022/11/22 10:35:58;;;;;;;17.10;5.90;;;-1.50;99.90;;;;;;5064591;28;20158;-78
2022/11/22 10:39:11;;;;;;;17.38;6.38;;;-1.50;99.90;;;;;;5064802;28;20052;-78
2022/11/22 10:41:56;;;;;;;17.50;6.20;;;-1.60;99.90;;;;;;5029234;28;20059;-77
2022/11/22 10:44:41;;;;;;;16.15;5.47;;;-1.60;99.90;;;;;;5055179;28;20105;-79
2022/11/22 10:47:18;;;;;;;12.52;5.43;;;-1.60;99.90;;;;;;5068278;28;20572;-79
2022/11/22 10:50:11;;;;;;;15.40;6.10;;;-1.60;99.90;;;;;;5043399;28;20049;-78
2022/11/22 10:52:48;;;;;;;12.50;5.88;;;-1.50;99.90;;;;;;5050573;28;20049;-78
2022/11/22 10:55:39;;;;;;;16.35;5.20;;;-1.50;99.90;;;;;;5070530;28;20048;-79
2022/11/22 10:58:16;;;;;;;11.85;4.88;;;-1.50;99.90;;;;;;5055694;28;20063;-78
2022/11/22 11:00:47;;;;;;;13.75;5.45;;;-1.50;99.90;;;;;;5064504;28;20137;-79
2022/11/22 11:03:26;;;;;;;12.38;5.35;;;-1.50;99.90;;;;;;5038628;28;20045;-79
2022/11/22 11:06:02;;;;;;;12.25;5.93;;;-1.50;99.90;;;;;;5056206;28;20068;-77
2022/11/22 11:08:38;;;;;;;14.60;5.60;;;-1.50;99.90;;;;;;5055237;28;20037;-78
2022/11/22 11:11:06;;;;;;;9.57;4.97;;;-1.50;99.90;;;;;;5024497;28;20573;-78
2022/11/22 11:13:38;;;;;;;13.45;5.60;;;-1.50;99.90;;;;;;5042086;28;20040;-78
2022/11/22 11:16:12;;;;;;;16.02;5.00;;;-1.40;99.90;;;;;;5033577;28;20072;-79
2022/11/22 11:18:47;;;;;;;17.38;5.70;;;-1.40;99.90;;;;;;5060733;28;20524;-80
2022/11/22 11:21:16;;;;;;;10.77;5.25;;;-1.50;99.90;;;;;;5051100;28;20055;-79
2022/11/22 11:23:43;;;;;;;14.85;6.18;;;-1.50;99.90;;;;;;5059935;28;20129;-80
2022/11/22 11:26:23;;;;;;;16.63;5.80;;;-1.40;99.90;;;;;;5066841;28;20091;-84
2022/11/22 11:28:51;;;;;;;14.52;5.18;;;-1.40;99.90;;;;;;5037003;28;20071;-80
2022/11/22 11:31:20;;;;;;;10.13;4.82;;;-1.40;99.90;;;;;;5055216;28;20537;-80
2022/11/22 11:33:48;;;;;;;11.98;5.50;;;-1.40;99.90;;;;;;5063564;28;20604;-80
2022/11/22 11:36:22;;;;;;;12.27;5.53;;;-1.50;99.90;;;;;;5072052;28;20488;-79
2022/11/22 11:38:55;;;;;;;9.23;5.32;;;-1.40;99.90;;;;;;5049860;28;20053;-78
2022/11/22 11:41:28;;;;;;;13.68;5.72;;;-1.40;99.90;;;;;;5033397;28;20068;-78
2022/11/22 11:43:57;;;;;;;11.85;5.28;;;-1.40;99.90;;;;;;5068024;28;20133;-76
2022/11/22 11:46:26;;;;;;;13.50;6.13;;;-1.40;99.90;;;;;;5071132;28;20053;-79
2022/11/22 11:48:55;;;;;;;15.52;6.07;;;-1.40;99.90;;;;;;5065907;28;20543;-76
2022/11/22 11:51:32;;;;;;;11.32;5.70;;;-1.40;99.90;;;;;;5058803;28;20041;-76
2022/11/22 11:54:02;;;;;;;12.25;5.55;;;-1.40;99.90;;;;;;5050608;28;20071;-76
2022/11/22 11:56:45;;;;;;;15.40;6.22;;;-1.40;99.90;;;;;;5060073;28;20033;-77
2022/11/22 11:59:16;;;;;;;14.73;5.20;;;-1.40;99.90;;;;;;5059621;28;20497;-77
2022/11/22 12:01:58;;;;;;;10.68;4.80;;;-1.40;99.90;;;;;;5041171;28;20053;-76
2022/11/22 12:04:29;;;;;;;10.68;5.10;;;-1.40;99.90;;;;;;5052824;28;20048;-73
2022/11/22 12:07:04;;;;;;;12.80;5.97;;;-1.40;99.90;;;;;;5055079;28;20106;-77
2022/11/22 12:09:36;;;;;;;10.80;5.50;;;-1.40;99.90;;;;;;5054223;28;20437;-77
2022/11/22 12:12:31;;;;;;;13.27;5.57;;;-1.30;99.90;;;;;;5070328;28;20148;-74
2022/11/22 12:35:53;;;;;;;10.50;4.93;;;-1.50;99.90;;;;;;5093221;27;20600;-76
2022/11/22 12:38:30;;;;;;;8.27;4.55;;;-1.60;99.90;;;;;;5087052;28;20056;-75
2022/11/22 12:41:01;;;;;;;12.50;5.18;;;-1.60;99.90;;;;;;5087642;28;20049;-76
2022/11/22 12:43:36;;;;;;;8.50;4.82;;;-1.60;99.90;;;;;;5080008;28;20048;-76
2022/11/22 12:46:16;;;;;;;7.88;4.53;;;-1.60;99.90;;;;;;5085164;28;20055;-76
2022/11/22 12:48:49;;;;;;;12.98;4.88;;;-1.60;99.90;;;;;;5085028;28;20048;-75
2022/11/22 12:51:26;;;;;;;7.07;4.80;;;-1.50;99.90;;;;;;5086666;28;20503;-80
2022/11/22 12:53:59;;;;;;;10.23;4.50;;;-1.50;99.90;;;;;;5079351;28;20060;-81
2022/11/22 12:56:29;;;;;;;8.25;5.00;;;-1.50;99.90;;;;;;5085554;28;20476;-74
2022/11/22 12:59:06;;;;;;;8.18;4.78;;;-1.50;99.90;;;;;;5085161;28;20101;-80
2022/11/22 13:01:43;;;;;;;10.65;4.70;;;-1.50;99.90;;;;;;5084437;28;20096;-78
2022/11/22 13:04:19;;;;;;;15.88;4.85;;;-1.50;99.90;;;;;;5087090;28;20059;-78
2022/11/22 13:06:55;;;;;;;9.45;4.70;;;-1.50;99.90;;;;;;5085121;28;20595;-78
2022/11/22 13:09:36;;;;;;;6.50;4.30;;;-1.40;99.90;;;;;;5081627;28;20072;-79
2022/11/22 13:12:09;;;;;;;11.98;4.45;;;-1.40;99.90;;;;;;5085484;28;20599;-80
2022/11/22 13:14:40;;;;;;;9.95;4.85;;;-1.40;99.90;;;;;;5082209;28;20087;-80
2022/11/22 13:17:09;;;;;;;7.30;4.43;;;-1.40;99.90;;;;;;5085071;28;20134;-79
2022/11/22 13:19:44;;;;;;;7.07;4.38;;;-1.40;99.90;;;;;;5082187;28;20052;-78
2022/11/22 13:22:21;;;;;;;9.15;4.95;;;-1.40;99.90;;;;;;5085247;28;20612;-79
2022/11/22 13:25:26;;;;;;;8.90;4.45;;;-1.40;99.90;;;;;;5083395;28;20075;-78
2022/11/22 13:27:57;;;;;;;9.52;4.30;;;-1.40;99.90;;;;;;5072111;28;20048;-78
2022/11/22 13:30:27;;;;;;;8.43;4.43;;;-1.40;99.90;;;;;;5080423;28;20128;-80